createdAt,value
2019-02-27T00:03:32.509Z,4.76
2019-02-27T00:06:22.393Z,5.00
2019-02-27T00:09:05.359Z,5.03
2019-02-27T00:11:55.177Z,4.83
2019-02-27T00:14:26.062Z,4.70
2019-02-27T00:17:18.022Z,4.63
2019-02-27T00:19:48.789Z,4.67
2019-02-27T00:22:38.673Z,4.66
2019-02-27T00:25:28.879Z,4.63
2019-02-27T00:28:12.541Z,4.77
2019-02-27T00:31:02.679Z,4.77
2019-02-27T00:33:48.344Z,4.62
2019-02-27T00:36:30.760Z,4.60
2019-02-27T00:39:21.026Z,4.44
2019-02-27T00:42:10.867Z,4.38
2019-02-27T00:47:57.510Z,4.28
2019-02-27T00:50:47.459Z,4.27
2019-02-27T00:53:29.944Z,4.41
2019-02-27T00:56:19.751Z,4.31
2019-02-27T00:59:02.172Z,4.37
2019-02-27T01:01:52.360Z,4.13
2019-02-27T01:04:38.674Z,4.27
2019-02-27T01:07:28.484Z,4.18
2019-02-27T01:10:12.389Z,4.32
2019-02-27T01:13:02.774Z,4.02
2019-02-27T01:15:45.281Z,3.96
2019-02-27T01:18:35.028Z,3.74
2019-02-27T01:21:19.842Z,3.86
2019-02-27T01:24:09.250Z,3.88
2019-02-27T01:26:51.290Z,3.82
2019-02-27T01:29:41.118Z,3.72
2019-02-27T01:32:24.141Z,3.61
2019-02-27T01:35:06.544Z,3.61
2019-02-27T01:37:56.294Z,3.60
2019-02-27T01:40:38.722Z,3.57
2019-02-27T01:46:32.298Z,3.64
2019-02-27T01:49:16.161Z,3.64
2019-02-27T01:52:06.600Z,3.61
2019-02-27T01:54:56.394Z,3.74
2019-02-27T01:57:46.188Z,3.48
2019-02-27T02:05:59.836Z,3.48
2019-02-27T02:08:49.687Z,3.34
2019-02-27T02:11:32.724Z,3.33
2019-02-27T02:14:44.431Z,3.21
2019-02-27T02:18:13.959Z,3.33
2019-02-27T02:21:01.844Z,3.42
2019-02-27T02:24:29.880Z,3.60
2019-02-27T02:27:34.391Z,3.49
2019-02-27T02:31:05.444Z,3.44
2019-02-27T02:34:08.605Z,3.50
2019-02-27T02:37:38.066Z,3.51
2019-02-27T02:41:08.441Z,3.47
2019-02-27T02:44:13.105Z,3.25
2019-02-27T02:47:41.107Z,3.30
2019-02-27T02:50:57.546Z,3.20
2019-02-27T02:54:25.476Z,3.38
2019-02-27T02:57:16.352Z,3.17
2019-02-27T03:00:44.310Z,3.27
2019-02-27T03:03:56.083Z,3.12
2019-02-27T03:06:58.530Z,3.16
2019-02-27T03:10:10.129Z,3.20
2019-02-27T03:13:41.415Z,3.35
2019-02-27T03:17:07.769Z,3.28
2019-02-27T03:20:09.510Z,3.25
2019-02-27T03:23:37.541Z,3.09
2019-02-27T03:27:05.508Z,3.23
2019-02-27T03:30:08.185Z,3.20
2019-02-27T03:33:36.078Z,3.35
2019-02-27T03:37:04.071Z,3.16
2019-02-27T03:39:53.603Z,3.16
2019-02-27T03:43:21.688Z,3.25
2019-02-27T03:46:49.744Z,3.14
2019-02-27T03:50:02.363Z,3.23
2019-02-27T03:53:30.338Z,3.02
2019-02-27T03:56:33.079Z,2.94
2019-02-27T04:00:01.001Z,3.04
2019-02-27T04:03:28.986Z,3.09
2019-02-27T04:06:57.284Z,3.02
2019-02-27T04:09:47.175Z,2.91
2019-02-27T04:12:17.874Z,2.93
2019-02-27T04:14:48.713Z,3.01
2019-02-27T04:17:33.559Z,3.03
2019-02-27T04:20:23.341Z,2.97
2019-02-27T04:23:11.197Z,3.03
2019-02-27T04:25:57.621Z,3.05
2019-02-27T04:28:39.553Z,3.09
2019-02-27T04:31:22.241Z,3.17
2019-02-27T04:34:12.148Z,3.19
2019-02-27T04:37:01.939Z,3.18
2019-02-27T04:39:51.723Z,3.20
2019-02-27T04:42:34.029Z,3.10
2019-02-27T04:45:23.795Z,2.92
2019-02-27T04:48:13.577Z,2.89
2019-02-27T04:51:03.349Z,2.99
2019-02-27T04:53:45.732Z,2.72
2019-02-27T04:56:35.515Z,2.72
2019-02-27T04:59:25.275Z,2.68
2019-02-27T05:02:27.545Z,2.81
2019-02-27T05:05:09.946Z,2.78
2019-02-27T05:07:59.735Z,2.77
2019-02-27T05:10:43.087Z,2.56
2019-02-27T05:13:34.524Z,2.76
2019-02-27T05:16:16.650Z,2.77
2019-02-27T05:19:06.480Z,2.63
2019-02-27T05:21:52.296Z,2.70
2019-02-27T05:24:40.973Z,2.66
2019-02-27T05:27:24.556Z,2.75
2019-02-27T05:30:33.576Z,2.76
2019-02-27T05:33:16.282Z,2.64
2019-02-27T05:36:06.084Z,2.67
2019-02-27T05:38:48.608Z,2.59
2019-02-27T05:41:38.415Z,2.56
2019-02-27T05:44:28.259Z,2.64
2019-02-27T05:47:18.092Z,2.68
2019-02-27T05:50:09.417Z,2.82
2019-02-27T05:52:59.191Z,2.84
2019-02-27T05:55:42.750Z,2.72
2019-02-27T05:58:25.010Z,2.67
2019-02-27T06:01:14.837Z,2.69
2019-02-27T06:04:04.674Z,2.77
2019-02-27T06:06:54.660Z,2.64
2019-02-27T06:09:44.641Z,2.53
2019-02-27T06:12:34.531Z,2.61
2019-02-27T06:15:43.418Z,2.53
2019-02-27T06:18:26.218Z,2.61
2019-02-27T06:21:16.633Z,2.69
2019-02-27T06:24:00.469Z,2.74
2019-02-27T06:26:50.260Z,2.81
2019-02-27T06:29:40.041Z,3.00
2019-02-27T06:32:29.850Z,2.91
2019-02-27T06:35:19.870Z,2.83
2019-02-27T06:38:09.855Z,2.62
2019-02-27T06:41:18.690Z,2.78
2019-02-27T06:44:02.160Z,2.88
2019-02-27T06:46:53.926Z,2.77
2019-02-27T06:49:36.297Z,2.93
2019-02-27T06:52:44.896Z,2.96
2019-02-27T06:55:28.126Z,2.76
2019-02-27T06:58:18.502Z,2.66
2019-02-27T07:01:09.812Z,2.87
2019-02-27T07:03:52.694Z,2.79
2019-02-27T07:06:42.463Z,2.86
2019-02-27T07:09:32.240Z,3.00
2019-02-27T07:12:22.387Z,3.03
2019-02-27T07:15:10.278Z,3.03
2019-02-27T07:17:53.743Z,3.24
2019-02-27T07:20:43.512Z,3.25
2019-02-27T07:23:35.226Z,3.27
2019-02-27T07:26:17.213Z,3.10
2019-02-27T07:29:06.992Z,3.09
2019-02-27T07:31:57.267Z,2.93
2019-02-27T07:34:46.746Z,2.93
2019-02-27T07:37:29.140Z,2.94
2019-02-27T07:40:18.922Z,2.91
2019-02-27T07:43:03.274Z,3.14
2019-02-27T07:46:12.285Z,3.29
2019-02-27T07:49:02.178Z,3.47
2019-02-27T07:51:56.771Z,3.60
2019-02-27T07:54:36.890Z,3.80
2019-02-27T07:57:26.707Z,3.94
2019-02-27T08:00:17.822Z,3.99
2019-02-27T08:03:09.838Z,3.94
2019-02-27T08:05:51.690Z,4.01
2019-02-27T08:08:41.409Z,4.06
2019-02-27T08:11:51.759Z,4.07
2019-02-27T08:14:36.805Z,4.22
2019-02-27T08:17:25.501Z,4.19
2019-02-27T08:20:20.152Z,4.48
2019-02-27T08:23:00.082Z,4.54
2019-02-27T08:25:49.886Z,4.76
2019-02-27T08:28:40.675Z,4.95
2019-02-27T08:31:32.060Z,4.99
2019-02-27T08:34:14.841Z,5.16
2019-02-27T08:37:04.594Z,5.28
2019-02-27T08:40:13.494Z,5.40
2019-02-27T08:43:03.333Z,5.51
2019-02-27T08:45:53.184Z,5.87
2019-02-27T08:48:58.175Z,5.83
2019-02-27T08:51:42.157Z,5.85
2019-02-27T08:54:33.031Z,5.92
2019-02-27T08:57:15.774Z,6.08
2019-02-27T09:03:20.735Z,6.22
2019-02-27T09:06:10.641Z,6.30
2019-02-27T09:09:00.425Z,6.60
2019-02-27T09:11:50.244Z,6.52
2019-02-27T09:14:40.041Z,6.59
2019-02-27T09:17:29.835Z,6.68
2019-02-27T09:23:23.384Z,6.90
2019-02-27T09:26:06.049Z,7.09
2019-02-27T09:28:55.810Z,7.21
2019-02-27T09:31:50.839Z,7.17
2019-02-27T09:34:30.007Z,7.28
2019-02-27T09:37:13.908Z,7.40
2019-02-27T09:40:05.678Z,7.40
2019-02-27T09:42:50.186Z,7.61
2019-02-27T09:45:46.248Z,7.77
2019-02-27T09:48:25.502Z,7.83
2019-02-27T09:51:15.316Z,8.03
2019-02-27T09:53:57.872Z,8.18
2019-02-27T09:56:47.824Z,8.18
2019-02-27T09:59:51.138Z,8.55
2019-02-27T10:02:35.082Z,8.50
2019-02-27T10:05:24.840Z,8.61
2019-02-27T10:08:07.707Z,8.83
2019-02-27T10:10:57.506Z,8.59
2019-02-27T10:13:40.275Z,8.81
2019-02-27T10:16:34.646Z,8.85
2019-02-27T10:19:14.092Z,8.70
2019-02-27T10:22:03.824Z,8.98
2019-02-27T10:24:49.886Z,9.02
2019-02-27T10:27:39.588Z,9.25
2019-02-27T10:30:22.296Z,9.32
2019-02-27T10:33:12.011Z,9.44
2019-02-27T10:35:54.351Z,9.71
2019-02-27T10:38:45.444Z,9.88
2019-02-27T10:41:28.511Z,9.82
2019-02-27T10:44:18.243Z,10.10
2019-02-27T10:47:00.781Z,10.47
2019-02-27T10:49:50.562Z,10.57
2019-02-27T10:52:33.364Z,10.51
2019-02-27T10:55:23.068Z,10.51
2019-02-27T10:58:07.590Z,10.98
2019-02-27T11:00:58.153Z,11.00
2019-02-27T11:03:40.945Z,11.12
2019-02-27T11:06:34.023Z,11.05
2019-02-27T11:09:23.114Z,11.14
2019-02-27T11:12:12.980Z,11.14
2019-02-27T11:14:55.763Z,11.60
2019-02-27T11:17:45.456Z,11.48
2019-02-27T11:20:27.891Z,11.57
2019-02-27T11:23:17.592Z,11.70
2019-02-27T11:26:00.220Z,11.97
2019-02-27T11:28:49.889Z,12.00
2019-02-27T11:31:32.135Z,12.25
2019-02-27T11:34:40.960Z,12.52
2019-02-27T11:37:23.513Z,12.51
2019-02-27T11:40:32.263Z,12.44
2019-02-27T11:43:14.209Z,12.49
2019-02-27T11:46:03.968Z,12.40
2019-02-27T11:48:46.474Z,12.33
2019-02-27T11:51:36.316Z,12.36
2019-02-27T11:54:45.218Z,12.54
2019-02-27T11:57:34.937Z,12.83
2019-02-27T12:00:43.513Z,12.69
2019-02-27T12:03:25.803Z,13.01
2019-02-27T12:06:15.579Z,12.97
2019-02-27T12:09:17.947Z,12.96
2019-02-27T12:12:00.967Z,12.86
2019-02-27T12:14:43.512Z,13.06
2019-02-27T12:17:33.277Z,13.42
2019-02-27T12:20:23.239Z,13.41
2019-02-27T12:23:12.993Z,13.42
2019-02-27T12:26:03.213Z,13.26
2019-02-27T12:28:47.582Z,13.49
2019-02-27T12:31:37.358Z,13.64
2019-02-27T12:34:27.111Z,13.93
2019-02-27T12:37:23.654Z,14.05
2019-02-27T12:40:00.997Z,14.15
2019-02-27T12:42:43.231Z,14.28
2019-02-27T12:45:32.986Z,14.50
2019-02-27T12:48:22.722Z,14.56
2019-02-27T12:51:04.845Z,14.50
2019-02-27T12:53:35.461Z,14.76
2019-02-27T12:56:25.173Z,14.79
2019-02-27T12:59:07.184Z,14.71
2019-02-27T13:01:56.985Z,14.81
2019-02-27T13:07:42.157Z,15.13
2019-02-27T13:10:24.149Z,14.96
2019-02-27T13:13:26.524Z,15.31
2019-02-27T13:16:09.313Z,15.41
2019-02-27T13:18:59.012Z,15.65
2019-02-27T13:21:48.729Z,15.75
2019-02-27T13:24:32.872Z,15.78
2019-02-27T13:27:22.673Z,15.63
2019-02-27T13:30:15.003Z,15.58
2019-02-27T13:33:04.747Z,15.74
2019-02-27T13:36:13.639Z,15.89
2019-02-27T13:42:18.399Z,15.94
2019-02-27T13:44:58.146Z,15.95
2019-02-27T13:47:40.260Z,16.25
2019-02-27T13:50:30.027Z,16.34
2019-02-27T13:53:25.785Z,16.27
2019-02-27T13:56:04.517Z,16.20
2019-02-27T13:58:54.229Z,16.43
2019-02-27T14:01:36.621Z,16.57
2019-02-27T14:04:26.409Z,16.53
2019-02-27T14:10:20.698Z,16.54
2019-02-27T14:13:08.959Z,16.67
2019-02-27T14:15:58.087Z,16.49
2019-02-27T14:18:39.495Z,16.56
2019-02-27T14:21:29.306Z,16.53
2019-02-27T14:24:20.686Z,16.65
2019-02-27T14:27:02.922Z,16.77
2019-02-27T14:30:11.790Z,16.79
2019-02-27T14:33:01.599Z,16.78
2019-02-27T14:35:51.398Z,16.82
2019-02-27T14:38:41.148Z,16.85
2019-02-27T14:41:30.982Z,16.76
2019-02-27T14:44:13.554Z,16.61
2019-02-27T14:47:22.163Z,16.80
2019-02-27T14:50:13.716Z,16.78
2019-02-27T14:53:03.506Z,16.79
2019-02-27T14:56:12.382Z,16.77
2019-02-27T14:59:02.115Z,16.77
2019-02-27T15:01:51.842Z,16.72
2019-02-27T15:04:41.542Z,16.75
2019-02-27T15:07:31.303Z,16.75
2019-02-27T15:10:13.824Z,16.72
2019-02-27T15:13:03.609Z,16.73
2019-02-27T15:15:45.558Z,16.73
2019-02-27T15:18:35.617Z,16.80
2019-02-27T15:21:18.052Z,16.76
2019-02-27T15:24:07.752Z,16.83
2019-02-27T15:26:50.711Z,16.85
2019-02-27T15:29:40.875Z,16.61
2019-02-27T15:32:22.940Z,16.63
2019-02-27T15:35:12.711Z,16.62
2019-02-27T15:37:55.177Z,16.75
2019-02-27T15:40:45.279Z,16.67
2019-02-27T15:43:29.312Z,16.67
2019-02-27T15:46:21.705Z,16.67
2019-02-27T15:49:03.342Z,16.66
2019-02-27T15:51:54.863Z,16.65
2019-02-27T15:54:44.667Z,16.66
2019-02-27T15:57:34.411Z,16.51
2019-02-27T16:00:24.337Z,16.56
2019-02-27T16:03:14.210Z,16.55
2019-02-27T16:06:05.689Z,16.52
2019-02-27T16:08:48.028Z,16.53
2019-02-27T16:11:37.771Z,16.46
2019-02-27T16:14:20.266Z,16.41
2019-02-27T16:17:10.031Z,16.32
2019-02-27T16:19:54.104Z,16.35
2019-02-27T16:22:36.359Z,16.33
2019-02-27T16:25:26.301Z,16.33
2019-02-27T16:28:16.629Z,16.35
2019-02-27T16:31:05.764Z,15.99
2019-02-27T16:34:11.807Z,16.06
2019-02-27T16:37:22.835Z,16.11
2019-02-27T16:40:05.490Z,15.95
2019-02-27T16:42:55.245Z,15.83
2019-02-27T16:45:37.718Z,15.77
2019-02-27T16:48:20.463Z,15.60
2019-02-27T16:51:10.183Z,15.40
2019-02-27T16:53:59.923Z,15.27
2019-02-27T16:56:50.925Z,15.11
2019-02-27T17:02:31.153Z,14.71
2019-02-27T17:05:20.946Z,14.63
2019-02-27T17:11:03.688Z,14.29
2019-02-27T17:13:53.516Z,14.14
2019-02-27T17:16:44.915Z,14.02
2019-02-27T17:19:27.018Z,13.93
2019-02-27T17:22:16.807Z,13.73
2019-02-27T17:25:07.266Z,13.46
2019-02-27T17:27:57.081Z,13.47
2019-02-27T17:30:46.797Z,13.27
2019-02-27T17:33:28.904Z,13.11
2019-02-27T17:36:11.374Z,13.22
2019-02-27T17:39:01.188Z,13.17
2019-02-27T17:41:52.239Z,13.04
2019-02-27T17:44:37.894Z,12.95
2019-02-27T17:47:28.827Z,12.84
2019-02-27T17:50:12.798Z,12.79
2019-02-27T17:53:02.490Z,12.70
2019-02-27T17:55:52.240Z,12.74
2019-02-27T17:58:42.003Z,12.41
2019-02-27T18:04:24.244Z,12.16
2019-02-27T18:07:09.197Z,12.08
2019-02-27T18:10:01.125Z,11.80
2019-02-27T18:12:42.873Z,11.63
2019-02-27T18:15:32.665Z,11.59
2019-02-27T18:18:22.460Z,11.66
2019-02-27T18:21:33.859Z,11.62
2019-02-27T18:24:15.023Z,11.54
2019-02-27T18:26:57.786Z,11.17
2019-02-27T18:29:47.701Z,11.03
2019-02-27T18:32:39.936Z,10.77
2019-02-27T18:35:21.673Z,10.70
2019-02-27T18:38:11.525Z,10.50
2019-02-27T18:41:01.268Z,10.64
2019-02-27T18:43:52.866Z,10.79
2019-02-27T18:46:36.827Z,10.50
2019-02-27T18:49:26.600Z,10.38
2019-02-27T18:52:28.651Z,10.58
2019-02-27T18:55:11.853Z,10.56
2019-02-27T18:58:01.633Z,10.44
2019-02-27T19:04:00.274Z,10.37
2019-02-27T19:06:39.197Z,10.33
2019-02-27T19:09:29.355Z,10.21
2019-02-27T19:12:13.143Z,10.12
2019-02-27T19:15:02.972Z,10.03
2019-02-27T19:17:53.065Z,10.15
2019-02-27T19:20:42.930Z,10.05
2019-02-27T19:23:32.832Z,10.09
2019-02-27T19:26:22.620Z,10.00
2019-02-27T19:29:12.393Z,10.11
2019-02-27T19:35:05.453Z,9.93
2019-02-27T19:37:48.647Z,10.01
2019-02-27T19:40:38.463Z,10.00
2019-02-27T19:43:47.351Z,9.93
2019-02-27T19:46:52.738Z,9.75
2019-02-27T19:49:36.640Z,9.71
2019-02-27T19:52:29.564Z,9.62
2019-02-27T19:55:11.454Z,9.61
2019-02-27T19:58:18.139Z,9.38
2019-02-27T20:01:00.679Z,9.23
2019-02-27T20:03:50.446Z,9.16
2019-02-27T20:06:32.783Z,9.12
2019-02-27T20:09:22.558Z,9.05
2019-02-27T20:12:12.740Z,8.86
2019-02-27T20:15:03.851Z,8.96
2019-02-27T20:17:45.900Z,8.80
2019-02-27T20:20:39.997Z,8.86
2019-02-27T20:23:20.309Z,8.83
2019-02-27T20:26:14.039Z,8.54
2019-02-27T20:28:54.328Z,8.67
2019-02-27T20:31:44.055Z,8.72
2019-02-27T20:34:26.021Z,8.67
2019-02-27T20:37:16.001Z,8.72
2019-02-27T20:39:59.190Z,8.71
2019-02-27T20:42:50.405Z,8.72
2019-02-27T20:45:33.178Z,8.66
2019-02-27T20:48:22.906Z,8.66
2019-02-27T20:51:06.060Z,8.56
2019-02-27T20:53:56.583Z,8.63
2019-02-27T20:56:38.714Z,8.70
2019-02-27T20:59:28.482Z,8.62
2019-02-27T21:02:10.441Z,8.62
2019-02-27T21:05:00.278Z,8.47
2019-02-27T21:07:42.782Z,8.60
2019-02-27T21:13:35.620Z,8.41
2019-02-27T21:19:30.341Z,8.49
2019-02-27T21:22:15.055Z,8.39
2019-02-27T21:24:57.015Z,8.37
2019-02-27T21:27:46.772Z,8.33
2019-02-27T21:30:36.708Z,8.22
2019-02-27T21:33:26.536Z,8.11
2019-02-27T21:36:16.346Z,8.05
2019-02-27T21:39:06.577Z,7.95
2019-02-27T21:41:56.418Z,7.83
2019-02-27T21:44:46.176Z,7.87
2019-02-27T21:47:54.996Z,7.88
2019-02-27T21:50:45.311Z,7.81
2019-02-27T21:53:29.549Z,7.81
2019-02-27T21:56:19.555Z,7.75
2019-02-27T21:59:04.824Z,7.81
2019-02-27T22:01:56.302Z,7.77
2019-02-27T22:04:37.614Z,7.80
2019-02-27T22:07:32.949Z,7.65
2019-02-27T22:10:11.450Z,7.54
2019-02-27T22:13:01.148Z,7.56
2019-02-27T22:15:43.458Z,7.44
2019-02-27T22:21:31.367Z,7.38
2019-02-27T22:24:12.570Z,7.34
2019-02-27T22:27:02.370Z,7.30
2019-02-27T22:29:52.091Z,7.09
2019-02-27T22:32:41.917Z,7.26
2019-02-27T22:35:24.691Z,7.32
2019-02-27T22:38:14.438Z,7.20
2019-02-27T22:41:04.184Z,7.35
2019-02-27T22:43:55.725Z,7.27
2019-02-27T22:46:47.785Z,7.15
2019-02-27T22:49:31.889Z,7.11
2019-02-27T22:55:50.059Z,7.15
2019-02-27T22:58:39.873Z,7.08
2019-02-27T23:01:49.419Z,7.03
2019-02-27T23:04:36.270Z,7.07
2019-02-27T23:07:21.267Z,7.09
2019-02-27T23:10:10.099Z,7.05
2019-02-27T23:12:52.938Z,6.82
2019-02-27T23:15:42.678Z,6.81
2019-02-27T23:18:25.530Z,6.78
2019-02-27T23:21:15.353Z,6.75
2019-02-27T23:23:58.483Z,6.70
2019-02-27T23:26:48.359Z,6.52
2019-02-27T23:29:40.028Z,6.65
2019-02-27T23:32:28.434Z,6.65
2019-02-27T23:35:08.655Z,6.69
2019-02-27T23:38:02.943Z,6.51
2019-02-27T23:40:42.456Z,6.69
2019-02-27T23:46:27.254Z,6.56
2019-02-27T23:49:39.524Z,6.54
2019-02-27T23:52:27.601Z,6.58
2019-02-27T23:55:10.863Z,6.45
2019-02-27T23:57:57.532Z,6.46
